Time;durP1;ratioP1;P1;durP2;ratioP2;P2;SDS_P1;SDS_P2;PMS_P1;PMS_P2;Temp;Humidity;BMP_temperature;BMP_pressure;BME280_temperature;BME280_humidity;BME280_pressure;Samples;Min_cycle;Max_cycle;Signal;HPM_P1;HPM_P2
2021/09/05 00:00:24;;;;;;;16.47;10.93;;;14.30;99.90;;;;;;5021583;28;20234;-65
2021/09/05 00:02:52;;;;;;;15.53;11.27;;;14.20;99.90;;;;;;5025955;28;20419;-65
2021/09/05 00:05:20;;;;;;;14.37;11.20;;;14.20;99.90;;;;;;5023693;28;20595;-65
2021/09/05 00:07:48;;;;;;;14.83;10.83;;;14.10;99.90;;;;;;5013546;28;20233;-65
2021/09/05 00:10:18;;;;;;;14.90;10.27;;;14.00;99.90;;;;;;5011332;28;20241;-64
2021/09/05 00:12:46;;;;;;;16.93;11.40;;;14.00;99.90;;;;;;5008501;28;20241;-65
2021/09/05 00:15:14;;;;;;;17.37;11.03;;;14.00;99.90;;;;;;5009006;28;20237;-65
2021/09/05 00:17:43;;;;;;;14.50;10.60;;;14.00;99.90;;;;;;5011563;28;20236;-64
2021/09/05 00:20:12;;;;;;;13.77;10.73;;;14.00;99.90;;;;;;5010102;28;20362;-64
2021/09/05 00:22:40;;;;;;;14.77;11.03;;;14.00;99.90;;;;;;5008799;28;20590;-65
2021/09/05 00:25:09;;;;;;;14.30;10.87;;;14.00;99.90;;;;;;5019527;28;20240;-65
2021/09/05 00:27:39;;;;;;;16.43;11.20;;;14.00;99.90;;;;;;5024254;28;20278;-65
2021/09/05 00:30:09;;;;;;;14.40;10.27;;;14.00;99.90;;;;;;5017058;28;20237;-65
2021/09/05 00:32:38;;;;;;;16.40;11.23;;;14.00;99.90;;;;;;5023941;28;20239;-66
2021/09/05 00:35:08;;;;;;;14.57;10.17;;;14.00;99.90;;;;;;5034986;28;20264;-65
2021/09/05 00:37:38;;;;;;;12.73;9.67;;;14.10;99.90;;;;;;5035569;28;20640;-66
2021/09/05 00:40:07;;;;;;;14.73;11.20;;;14.10;99.90;;;;;;5023372;28;20640;-65
2021/09/05 00:42:35;;;;;;;13.63;10.00;;;14.10;99.90;;;;;;5020283;28;20243;-66
2021/09/05 00:45:05;;;;;;;12.93;10.07;;;14.00;99.90;;;;;;5021537;28;20728;-66
2021/09/05 00:47:34;;;;;;;13.80;10.83;;;14.00;99.90;;;;;;5029097;28;20241;-65
2021/09/05 00:50:03;;;;;;;14.47;10.43;;;14.00;99.90;;;;;;5026710;28;20246;-64
2021/09/05 00:52:31;;;;;;;13.70;10.63;;;13.90;99.90;;;;;;5024446;28;20240;-65
2021/09/05 00:55:00;;;;;;;14.83;10.00;;;13.90;99.90;;;;;;5020779;28;20263;-65
2021/09/05 00:57:30;;;;;;;13.50;10.20;;;14.00;99.90;;;;;;5025933;28;20650;-65
2021/09/05 01:00:00;;;;;;;13.20;10.33;;;14.00;99.90;;;;;;5026125;28;20236;-64
2021/09/05 01:02:30;;;;;;;13.10;9.97;;;14.00;99.90;;;;;;5022118;28;20650;-65
2021/09/05 01:04:58;;;;;;;14.13;10.13;;;13.90;99.90;;;;;;5022381;28;20236;-65
2021/09/05 01:07:28;;;;;;;14.43;10.07;;;13.90;99.90;;;;;;5018874;28;20234;-64
2021/09/05 01:09:56;;;;;;;14.53;10.33;;;14.00;99.90;;;;;;5017171;28;20537;-65
2021/09/05 01:12:26;;;;;;;14.63;9.97;;;14.00;99.90;;;;;;5039438;28;20245;-66
2021/09/05 01:14:55;;;;;;;14.20;10.47;;;14.00;99.90;;;;;;5015901;28;20725;-65
2021/09/05 01:17:24;;;;;;;14.57;10.73;;;13.80;99.90;;;;;;5016485;28;20236;-65
2021/09/05 01:20:14;;;;;;;15.27;11.47;;;13.80;99.90;;;;;;5021807;28;20229;-65
2021/09/05 01:23:05;;;;;;;12.27;9.60;;;13.70;99.90;;;;;;5023187;28;20254;-65
2021/09/05 01:25:35;;;;;;;13.73;10.63;;;13.80;99.90;;;;;;5023440;28;20712;-65
2021/09/05 01:28:34;;;;;;;13.27;9.90;;;13.70;99.90;;;;;;5039866;28;20236;-64
2021/09/05 01:31:37;;;;;;;13.27;10.13;;;13.60;99.90;;;;;;5024138;28;20240;-65
2021/09/05 01:34:28;;;;;;;12.60;10.37;;;13.60;99.90;;;;;;5026689;28;20232;-66
2021/09/05 01:37:25;;;;;;;11.53;9.27;;;13.70;99.90;;;;;;5033927;28;20318;-65
2021/09/05 01:40:16;;;;;;;14.33;9.60;;;13.70;99.90;;;;;;5040598;28;20240;-65
2021/09/05 01:43:11;;;;;;;12.33;9.40;;;13.70;99.90;;;;;;5034923;28;20676;-65
2021/09/05 01:46:07;;;;;;;13.70;10.03;;;13.80;99.90;;;;;;5030025;28;20235;-65
2021/09/05 01:48:54;;;;;;;11.87;9.40;;;13.70;99.90;;;;;;5058753;28;20360;-65
2021/09/05 01:51:42;;;;;;;13.53;9.43;;;13.70;99.90;;;;;;5050867;28;20258;-65
2021/09/05 01:54:41;;;;;;;13.10;10.03;;;13.60;99.90;;;;;;5045087;28;20281;-65
2021/09/05 01:57:25;;;;;;;11.57;9.63;;;13.60;99.90;;;;;;5057357;28;20325;-65
2021/09/05 02:00:12;;;;;;;11.60;9.00;;;13.50;99.90;;;;;;5046562;28;20249;-64
2021/09/05 02:02:52;;;;;;;13.57;9.63;;;13.50;99.90;;;;;;5047988;28;20599;-65
2021/09/05 02:05:38;;;;;;;10.63;9.07;;;13.50;99.90;;;;;;5050955;28;20258;-65
2021/09/05 02:08:45;;;;;;;13.13;9.33;;;13.60;99.90;;;;;;5039488;28;20703;-65
2021/09/05 02:11:45;;;;;;;10.70;8.47;;;13.50;99.90;;;;;;5043597;28;20244;-65
2021/09/05 02:14:30;;;;;;;13.63;9.57;;;13.50;99.90;;;;;;5049045;28;20568;-65
2021/09/05 02:17:28;;;;;;;10.47;8.63;;;13.40;99.90;;;;;;5045926;28;20241;-65
2021/09/05 02:20:11;;;;;;;10.80;8.87;;;13.50;99.90;;;;;;5050275;28;20615;-64
2021/09/05 02:22:56;;;;;;;13.73;9.20;;;13.40;99.90;;;;;;5048201;28;20238;-65
2021/09/05 02:25:40;;;;;;;10.27;8.43;;;13.40;99.90;;;;;;5064875;28;20658;-65
2021/09/05 02:28:38;;;;;;;13.40;9.70;;;13.30;99.90;;;;;;5045143;28;20325;-66
2021/09/05 02:31:24;;;;;;;10.50;8.17;;;13.30;99.90;;;;;;5060729;28;20236;-65
2021/09/05 02:34:12;;;;;;;14.97;8.60;;;13.30;99.90;;;;;;5039428;28;20238;-66
2021/09/05 02:37:02;;;;;;;11.50;8.20;;;13.20;99.90;;;;;;5055773;28;20318;-65
2021/09/05 02:39:59;;;;;;;11.70;9.00;;;13.20;99.90;;;;;;5043622;28;20278;-64
2021/09/05 02:42:46;;;;;;;12.03;8.63;;;13.20;99.90;;;;;;5049187;28;20235;-64
2021/09/05 02:45:46;;;;;;;10.70;8.57;;;13.10;99.90;;;;;;5061583;28;20246;-65
2021/09/05 02:48:14;;;;;;;10.47;8.07;;;13.10;99.90;;;;;;5050213;28;20239;-65
2021/09/05 02:51:00;;;;;;;11.37;8.70;;;13.00;99.90;;;;;;5045556;28;20238;-65
2021/09/05 02:53:33;;;;;;;10.43;8.77;;;13.00;99.90;;;;;;5048781;28;20239;-64
2021/09/05 02:56:01;;;;;;;10.87;8.07;;;13.00;99.90;;;;;;5050227;28;20439;-65
2021/09/05 02:58:55;;;;;;;10.93;7.83;;;13.00;99.90;;;;;;5046155;28;20496;-65
2021/09/05 03:01:40;;;;;;;10.37;7.90;;;13.00;99.90;;;;;;5046430;28;20320;-65
2021/09/05 03:04:41;;;;;;;11.53;7.97;;;13.10;99.90;;;;;;5026137;28;20243;-65
2021/09/05 03:07:27;;;;;;;13.03;8.17;;;13.10;99.90;;;;;;5048330;28;20240;-65
2021/09/05 03:10:27;;;;;;;11.00;7.60;;;12.90;99.90;;;;;;5011298;28;20240;-65
2021/09/05 03:13:24;;;;;;;10.33;8.17;;;12.90;99.90;;;;;;5042732;28;20234;-64
2021/09/05 03:16:11;;;;;;;10.90;7.30;;;13.00;99.90;;;;;;5048579;28;20266;-64
2021/09/05 03:18:56;;;;;;;10.40;8.00;;;12.90;99.90;;;;;;5048565;28;20239;-66
2021/09/05 03:21:46;;;;;;;9.60;7.60;;;12.80;99.90;;;;;;5057238;28;21255;-65
2021/09/05 03:24:30;;;;;;;10.50;7.57;;;12.80;99.90;;;;;;5064653;28;20236;-65
2021/09/05 03:27:32;;;;;;;9.77;7.80;;;12.80;99.90;;;;;;5043049;28;20237;-65
2021/09/05 03:30:18;;;;;;;14.87;8.20;;;12.70;99.90;;;;;;5045220;28;20325;-65
2021/09/05 03:33:09;;;;;;;10.83;7.80;;;12.60;99.90;;;;;;5047954;28;20326;-64
2021/09/05 03:35:58;;;;;;;9.03;7.77;;;12.70;99.90;;;;;;5064371;28;20760;-65
2021/09/05 03:38:39;;;;;;;10.43;7.70;;;12.70;99.90;;;;;;5047017;28;20713;-65
2021/09/05 03:41:23;;;;;;;9.73;7.10;;;12.70;99.90;;;;;;5062752;28;20239;-65
2021/09/05 03:44:13;;;;;;;8.93;7.33;;;12.60;99.90;;;;;;5011704;28;20260;-65
2021/09/05 03:47:10;;;;;;;13.03;7.63;;;12.60;99.90;;;;;;5047832;28;20242;-64
2021/09/05 03:49:57;;;;;;;9.60;6.60;;;12.60;99.90;;;;;;5048284;28;20320;-65
2021/09/05 03:52:28;;;;;;;8.63;7.03;;;12.50;99.90;;;;;;5048029;28;20250;-65
2021/09/05 03:54:59;;;;;;;9.67;7.60;;;12.70;99.90;;;;;;5047338;28;20238;-65
2021/09/05 03:57:28;;;;;;;11.43;7.87;;;12.60;99.90;;;;;;5047001;28;20235;-65
2021/09/05 03:59:58;;;;;;;10.07;6.97;;;12.50;99.90;;;;;;5063825;28;20239;-65
2021/09/05 04:02:27;;;;;;;11.43;7.40;;;12.50;99.90;;;;;;5045795;28;20290;-65
2021/09/05 04:04:55;;;;;;;8.23;6.33;;;12.70;99.90;;;;;;5048637;28;20321;-66
2021/09/05 04:07:24;;;;;;;8.97;7.03;;;12.50;99.90;;;;;;5047603;28;20654;-65
2021/09/05 04:10:10;;;;;;;9.33;6.93;;;12.60;99.90;;;;;;5041993;28;20734;-64
2021/09/05 04:12:40;;;;;;;8.77;6.60;;;12.50;99.90;;;;;;5047476;28;20295;-66
2021/09/05 04:15:11;;;;;;;9.97;7.10;;;12.40;99.90;;;;;;5048189;28;20243;-66
2021/09/05 04:17:40;;;;;;;9.20;6.60;;;12.40;99.90;;;;;;5047853;28;20288;-66
2021/09/05 04:20:08;;;;;;;8.53;6.80;;;12.50;99.90;;;;;;5047379;28;20267;-65
2021/09/05 04:22:40;;;;;;;9.43;6.73;;;12.40;99.90;;;;;;5041151;28;20532;-65
2021/09/05 04:25:09;;;;;;;11.97;6.83;;;12.30;99.90;;;;;;5048032;28;20238;-65
2021/09/05 04:27:37;;;;;;;8.70;6.30;;;12.40;99.90;;;;;;5048174;28;20238;-65
2021/09/05 04:30:09;;;;;;;10.03;7.13;;;12.40;99.90;;;;;;5043512;28;20266;-65
2021/09/05 04:32:39;;;;;;;10.17;7.00;;;12.50;99.90;;;;;;5039526;28;20319;-65
2021/09/05 04:35:08;;;;;;;10.27;6.60;;;12.40;99.90;;;;;;5025489;28;20236;-65
2021/09/05 04:37:36;;;;;;;11.53;7.00;;;12.40;99.90;;;;;;5023672;28;20246;-65
2021/09/05 04:40:05;;;;;;;7.57;6.10;;;12.40;99.90;;;;;;5019594;28;20235;-66
2021/09/05 04:42:36;;;;;;;10.43;6.80;;;12.40;99.90;;;;;;5021323;28;20275;-64
2021/09/05 04:45:04;;;;;;;8.17;6.30;;;12.30;99.90;;;;;;5020727;28;20244;-65
2021/09/05 04:47:34;;;;;;;8.87;5.97;;;12.40;99.90;;;;;;5019679;28;20259;-65
2021/09/05 04:50:05;;;;;;;8.60;6.27;;;12.30;99.90;;;;;;5024803;28;20224;-64
2021/09/05 04:52:33;;;;;;;7.80;6.20;;;12.20;99.90;;;;;;5019747;28;20264;-65
2021/09/05 04:55:02;;;;;;;9.37;6.80;;;12.40;99.90;;;;;;5026289;28;20243;-65
2021/09/05 04:57:30;;;;;;;8.47;6.20;;;12.40;99.90;;;;;;5024168;28;20242;-65
2021/09/05 04:59:58;;;;;;;8.57;6.27;;;12.30;99.90;;;;;;5019668;28;20593;-65
2021/09/05 05:02:26;;;;;;;10.17;6.57;;;12.30;99.90;;;;;;5046642;28;20274;-65
2021/09/05 05:04:55;;;;;;;7.83;6.30;;;12.40;99.90;;;;;;5050170;28;20234;-65
2021/09/05 05:07:24;;;;;;;8.53;6.10;;;12.20;99.90;;;;;;5050586;28;20326;-65
2021/09/05 05:09:54;;;;;;;11.83;6.63;;;12.30;99.90;;;;;;5047674;28;20234;-65
2021/09/05 05:12:22;;;;;;;7.93;6.13;;;12.30;99.90;;;;;;5048546;28;20300;-65
2021/09/05 05:14:50;;;;;;;23.87;14.23;;;12.20;99.90;;;;;;5051434;28;20242;-66
2021/09/05 05:17:18;;;;;;;9.47;7.10;;;12.30;99.90;;;;;;5055622;28;20260;-65
2021/09/05 05:19:46;;;;;;;17.40;11.00;;;12.30;99.90;;;;;;5056209;28;20786;-65
2021/09/05 05:22:14;;;;;;;15.97;9.40;;;12.50;99.90;;;;;;5056269;28;20227;-65
2021/09/05 05:24:44;;;;;;;11.60;8.33;;;12.70;99.90;;;;;;5051252;28;20403;-65
2021/09/05 05:27:12;;;;;;;9.73;7.17;;;12.70;99.90;;;;;;5053250;28;20603;-65
2021/09/05 05:29:40;;;;;;;8.00;6.30;;;12.70;99.90;;;;;;5051951;28;20234;-65
2021/09/05 05:32:08;;;;;;;9.93;6.67;;;12.70;99.90;;;;;;5045478;28;20233;-66
2021/09/05 05:34:36;;;;;;;10.13;6.90;;;12.70;99.90;;;;;;5047983;28;20234;-65
2021/09/05 05:37:05;;;;;;;8.13;6.43;;;12.80;99.90;;;;;;5054126;28;20242;-65
2021/09/05 05:39:33;;;;;;;9.73;7.20;;;12.70;99.90;;;;;;5051985;28;20250;-65
2021/09/05 05:42:05;;;;;;;8.30;6.73;;;12.70;99.90;;;;;;5053662;28;20234;-64
2021/09/05 05:44:34;;;;;;;9.13;6.57;;;12.80;99.90;;;;;;5055437;28;20779;-65
2021/09/05 05:47:02;;;;;;;10.10;6.73;;;12.90;99.90;;;;;;5051271;28;20234;-64
2021/09/05 05:49:32;;;;;;;11.40;6.67;;;13.00;99.90;;;;;;5048085;28;20721;-65
2021/09/05 05:52:00;;;;;;;11.70;6.47;;;13.00;99.90;;;;;;5055168;28;20233;-66
2021/09/05 05:54:31;;;;;;;8.67;6.27;;;13.10;99.90;;;;;;5053201;28;20327;-65
2021/09/05 05:56:59;;;;;;;11.27;8.00;;;13.10;99.90;;;;;;5052688;28;20242;-66
2021/09/05 05:59:29;;;;;;;8.37;6.40;;;13.20;99.90;;;;;;5026793;28;20322;-64
2021/09/05 06:01:57;;;;;;;7.57;5.73;;;13.30;99.90;;;;;;5037333;28;20250;-64
2021/09/05 06:04:25;;;;;;;9.13;6.60;;;13.40;99.90;;;;;;5043776;28;20293;-66
2021/09/05 06:06:53;;;;;;;11.97;7.23;;;13.50;99.90;;;;;;5043025;28;20254;-65
2021/09/05 06:09:22;;;;;;;8.40;5.90;;;13.60;99.90;;;;;;5044662;28;20326;-65
2021/09/05 06:11:53;;;;;;;7.07;5.40;;;13.70;99.90;;;;;;5044740;28;20259;-65
2021/09/05 06:14:22;;;;;;;11.87;7.17;;;13.80;99.90;;;;;;5043259;28;20246;-64
2021/09/05 06:16:52;;;;;;;9.07;6.33;;;14.00;99.90;;;;;;5045695;28;20247;-64
2021/09/05 06:19:21;;;;;;;8.43;6.10;;;14.00;99.90;;;;;;5038903;28;20232;-64
2021/09/05 06:21:49;;;;;;;12.80;7.03;;;14.10;99.90;;;;;;5045259;28;20293;-66
2021/09/05 06:24:18;;;;;;;8.97;5.90;;;14.20;99.90;;;;;;5045292;28;20296;-65
2021/09/05 06:26:46;;;;;;;9.60;5.60;;;14.30;99.90;;;;;;5044892;28;20277;-66
2021/09/05 06:29:14;;;;;;;9.53;5.57;;;14.40;99.90;;;;;;5045207;28;20272;-65
2021/09/05 06:31:42;;;;;;;5.93;5.33;;;14.50;99.90;;;;;;5043045;28;20314;-65
2021/09/05 06:34:12;;;;;;;6.70;4.97;;;14.70;99.90;;;;;;5045202;28;20439;-66
2021/09/05 06:36:40;;;;;;;6.00;4.70;;;14.90;99.90;;;;;;5044717;28;20270;-66
2021/09/05 06:39:08;;;;;;;8.20;6.00;;;15.10;99.90;;;;;;5044707;28;20232;-65
2021/09/05 06:41:39;;;;;;;7.97;4.77;;;15.20;99.90;;;;;;5039691;28;20292;-66
2021/09/05 06:44:08;;;;;;;8.37;4.83;;;15.30;99.90;;;;;;5044373;28;20223;-65
2021/09/05 06:46:36;;;;;;;5.67;4.30;;;15.40;99.90;;;;;;5045716;28;20243;-65
2021/09/05 06:49:05;;;;;;;8.93;4.90;;;15.40;99.90;;;;;;5048372;28;20259;-66
2021/09/05 06:51:34;;;;;;;5.27;4.37;;;15.60;99.90;;;;;;5046636;28;20258;-66
2021/09/05 06:54:02;;;;;;;6.13;4.60;;;15.70;99.90;;;;;;5048032;28;20243;-65
2021/09/05 06:56:30;;;;;;;5.93;4.63;;;15.70;99.90;;;;;;5048273;28;20708;-65
2021/09/05 06:58:58;;;;;;;9.30;5.50;;;15.80;99.90;;;;;;5048853;28;20622;-65
2021/09/05 07:01:27;;;;;;;8.03;4.77;;;16.00;99.90;;;;;;5046877;28;20236;-65
2021/09/05 07:03:55;;;;;;;5.73;4.50;;;16.10;99.90;;;;;;5047033;28;20244;-66
2021/09/05 07:06:23;;;;;;;7.63;5.10;;;16.10;99.90;;;;;;5047907;28;20236;-64
2021/09/05 07:08:53;;;;;;;11.73;4.87;;;16.10;99.90;;;;;;5044255;28;20605;-65
2021/09/05 07:11:21;;;;;;;5.47;4.40;;;16.20;99.90;;;;;;5034826;28;20604;-66
2021/09/05 07:13:49;;;;;;;9.27;4.73;;;16.30;99.90;;;;;;5038007;28;20235;-65
2021/09/05 07:16:17;;;;;;;5.87;4.27;;;16.50;99.90;;;;;;5016181;28;20225;-65
2021/09/05 07:18:45;;;;;;;8.17;4.90;;;16.80;99.90;;;;;;5020613;28;20240;-66
2021/09/05 07:21:13;;;;;;;8.00;4.77;;;16.80;99.90;;;;;;5018758;28;20221;-65
2021/09/05 07:23:42;;;;;;;6.23;4.00;;;17.10;99.90;;;;;;5024855;28;20237;-66
2021/09/05 07:26:11;;;;;;;5.93;4.47;;;17.40;99.90;;;;;;5022131;28;20265;-66
2021/09/05 07:28:39;;;;;;;9.97;5.60;;;17.60;99.90;;;;;;5031849;28;20255;-69
2021/09/05 07:31:07;;;;;;;6.40;4.43;;;17.90;99.90;;;;;;5043652;28;20309;-68
2021/09/05 07:33:35;;;;;;;6.80;4.17;;;18.00;99.90;;;;;;5035333;28;20704;-68
2021/09/05 07:36:04;;;;;;;6.63;4.37;;;18.00;99.90;;;;;;5043117;28;20228;-67
2021/09/05 07:38:32;;;;;;;6.37;4.20;;;18.20;99.90;;;;;;5043117;28;20735;-67
2021/09/05 07:41:00;;;;;;;7.10;4.20;;;18.20;99.90;;;;;;5043287;28;20648;-67
2021/09/05 07:43:30;;;;;;;6.80;4.30;;;18.00;99.90;;;;;;5043701;28;20228;-69
2021/09/05 07:45:58;;;;;;;10.40;5.63;;;18.00;99.90;;;;;;5044551;28;20327;-69
2021/09/05 07:48:26;;;;;;;7.30;4.20;;;18.20;99.90;;;;;;5046684;28;20325;-68
2021/09/05 07:50:54;;;;;;;9.07;4.97;;;18.40;99.90;;;;;;5037584;28;20323;-67
2021/09/05 07:53:23;;;;;;;6.57;3.97;;;18.30;99.90;;;;;;5044064;28;20240;-69
2021/09/05 07:55:51;;;;;;;6.00;3.73;;;18.60;99.90;;;;;;5042524;28;20711;-68
2021/09/05 07:58:21;;;;;;;5.60;3.50;;;18.90;99.90;;;;;;5045455;28;20230;-68
2021/09/05 08:00:50;;;;;;;7.20;4.07;;;19.00;99.90;;;;;;5044297;28;20299;-67
2021/09/05 08:03:18;;;;;;;4.63;3.60;;;19.10;99.90;;;;;;5045350;28;20237;-68
2021/09/05 08:05:47;;;;;;;6.87;3.80;;;19.30;99.90;;;;;;5044789;28;20674;-67
2021/09/05 08:08:17;;;;;;;4.30;3.60;;;19.50;99.90;;;;;;5044755;28;20241;-67
2021/09/05 08:10:45;;;;;;;5.57;3.80;;;19.40;99.90;;;;;;5046354;28;20244;-67
2021/09/05 08:13:13;;;;;;;3.97;3.57;;;19.10;99.90;;;;;;5035768;28;20246;-66
2021/09/05 08:15:41;;;;;;;4.80;3.77;;;19.30;99.90;;;;;;5045769;28;20296;-68
2021/09/05 08:18:11;;;;;;;6.30;3.90;;;19.40;99.90;;;;;;5042821;28;20236;-68
2021/09/05 08:20:39;;;;;;;4.23;3.60;;;19.70;99.90;;;;;;5047876;28;20777;-69
2021/09/05 08:23:08;;;;;;;7.47;4.10;;;19.80;99.90;;;;;;5042713;28;20238;-67
2021/09/05 08:25:36;;;;;;;6.70;3.90;;;19.60;99.90;;;;;;5038449;28;20267;-67
2021/09/05 08:28:06;;;;;;;5.70;3.83;;;19.80;99.90;;;;;;5052279;28;20254;-67
2021/09/05 08:30:34;;;;;;;6.37;3.60;;;19.80;99.90;;;;;;5045151;28;20354;-68
2021/09/05 08:33:02;;;;;;;4.93;3.67;;;19.70;99.90;;;;;;5024998;28;20238;-67
2021/09/05 08:35:31;;;;;;;4.47;3.50;;;19.90;99.90;;;;;;5024970;28;20331;-68
2021/09/05 08:38:00;;;;;;;5.93;3.93;;;20.20;99.90;;;;;;5021234;28;20232;-67
2021/09/05 08:40:28;;;;;;;7.43;4.13;;;20.10;99.90;;;;;;5050881;28;20463;-67
2021/09/05 08:42:57;;;;;;;7.03;3.70;;;20.20;99.90;;;;;;5052570;28;20708;-67
2021/09/05 08:45:25;;;;;;;5.77;3.10;;;20.20;99.90;;;;;;5057267;28;20259;-67
2021/09/05 08:47:54;;;;;;;4.60;3.20;;;20.40;99.90;;;;;;5052181;28;20235;-67
2021/09/05 08:50:25;;;;;;;5.57;3.73;;;20.50;99.90;;;;;;5060921;28;20326;-66
2021/09/05 08:52:55;;;;;;;4.63;3.47;;;20.70;99.90;;;;;;5051096;28;20239;-67
2021/09/05 08:55:23;;;;;;;4.63;3.43;;;20.80;99.90;;;;;;5056663;28;20311;-67
2021/09/05 08:57:51;;;;;;;4.23;3.23;;;20.90;99.90;;;;;;5060165;28;20717;-66
2021/09/05 09:00:19;;;;;;;4.23;3.30;;;20.80;99.90;;;;;;5051360;28;20297;-66
2021/09/05 09:02:49;;;;;;;3.73;2.97;;;20.70;99.90;;;;;;5047089;28;20239;-66
2021/09/05 09:05:31;;;;;;;5.33;3.53;;;20.90;99.90;;;;;;5045545;28;20718;-66
2021/09/05 09:08:03;;;;;;;4.93;3.17;;;21.30;99.90;;;;;;5049248;28;20250;-67
2021/09/05 09:10:31;;;;;;;5.10;3.50;;;21.40;99.90;;;;;;5044365;28;20239;-67
2021/09/05 09:12:59;;;;;;;4.43;3.03;;;21.40;99.90;;;;;;5046124;28;20714;-66
2021/09/05 09:15:29;;;;;;;3.80;3.20;;;21.40;99.90;;;;;;5049735;28;20743;-67
2021/09/05 09:17:59;;;;;;;5.77;3.40;;;21.40;99.90;;;;;;5047288;28;20715;-67
2021/09/05 09:20:39;;;;;;;5.40;3.60;;;21.40;99.90;;;;;;5048178;28;20290;-67
2021/09/05 09:23:15;;;;;;;4.60;3.10;;;21.30;99.90;;;;;;5046413;28;20262;-67
2021/09/05 09:25:59;;;;;;;4.47;3.33;;;21.60;99.90;;;;;;5049003;28;20242;-67
2021/09/05 09:28:30;;;;;;;5.10;3.40;;;21.90;99.90;;;;;;5046720;28;20274;-67
2021/09/05 09:31:00;;;;;;;9.73;3.40;;;21.70;99.90;;;;;;5048990;28;20766;-67
2021/09/05 09:33:30;;;;;;;7.37;3.60;;;21.70;99.90;;;;;;5025724;28;20706;-67
2021/09/05 09:36:00;;;;;;;5.73;3.20;;;21.80;99.90;;;;;;5024006;28;20592;-67
2021/09/05 09:38:30;;;;;;;5.23;3.03;;;22.10;99.90;;;;;;5020671;28;20252;-67
2021/09/05 09:41:09;;;;;;;3.80;3.20;;;22.30;99.90;;;;;;5029703;28;20807;-67
2021/09/05 09:43:52;;;;;;;5.93;3.30;;;22.10;99.90;;;;;;5050102;28;20242;-68
2021/09/05 09:46:22;;;;;;;4.60;3.50;;;22.30;99.90;;;;;;5043736;28;20323;-68
2021/09/05 09:48:52;;;;;;;5.87;3.30;;;22.70;99.90;;;;;;5055049;28;20231;-67
2021/09/05 09:51:21;;;;;;;4.37;3.40;;;22.60;99.90;;;;;;5045732;28;20228;-67
2021/09/05 09:53:52;;;;;;;4.87;3.83;;;22.50;99.90;;;;;;5065977;28;20726;-67
2021/09/05 09:56:26;;;;;;;5.67;3.30;;;22.50;99.90;;;;;;5052006;28;20235;-66
2021/09/05 09:58:56;;;;;;;4.00;3.43;;;22.70;99.90;;;;;;5051135;28;20649;-67
2021/09/05 10:01:26;;;;;;;3.97;3.23;;;23.20;99.90;;;;;;5042541;28;20271;-66
2021/09/05 10:03:56;;;;;;;5.10;3.67;;;23.50;99.90;;;;;;5052425;28;20298;-67
2021/09/05 10:06:27;;;;;;;4.43;3.13;;;23.50;99.90;;;;;;5050554;28;20322;-66
2021/09/05 10:09:00;;;;;;;4.13;3.20;;;23.40;99.90;;;;;;5045795;28;20236;-67
2021/09/05 10:11:29;;;;;;;4.57;3.10;;;23.80;99.90;;;;;;5052353;28;20233;-65
2021/09/05 10:13:58;;;;;;;4.57;3.20;;;23.90;99.90;;;;;;5038617;28;20233;-67
2021/09/05 10:16:27;;;;;;;4.10;3.27;;;23.90;99.90;;;;;;5022946;28;20233;-65
2021/09/05 10:19:00;;;;;;;5.53;3.87;;;23.60;99.90;;;;;;5023494;28;20319;-67
2021/09/05 10:21:30;;;;;;;6.43;3.70;;;23.20;99.90;;;;;;5019414;28;20315;-67
2021/09/05 10:23:59;;;;;;;5.00;3.63;;;23.60;99.90;;;;;;5018427;28;20249;-66
2021/09/05 10:26:28;;;;;;;6.77;3.43;;;23.20;99.90;;;;;;5034348;28;20236;-67
2021/09/05 10:28:58;;;;;;;4.13;3.53;;;23.50;99.90;;;;;;5026524;28;20266;-67
2021/09/05 10:31:28;;;;;;;5.80;3.60;;;23.50;99.90;;;;;;5018357;28;20668;-67
2021/09/05 10:33:57;;;;;;;5.13;3.77;;;23.40;99.90;;;;;;5019341;28;20578;-67
2021/09/05 10:36:27;;;;;;;4.63;3.47;;;23.40;99.90;;;;;;5021979;28;20238;-66
2021/09/05 10:39:08;;;;;;;5.30;3.60;;;23.70;99.90;;;;;;5022597;28;20237;-66
2021/09/05 10:41:49;;;;;;;3.77;3.47;;;23.90;99.90;;;;;;5020613;28;20240;-67
2021/09/05 10:44:17;;;;;;;7.07;3.70;;;24.00;99.90;;;;;;5019052;28;20240;-67
2021/09/05 10:46:47;;;;;;;4.77;3.73;;;23.60;99.90;;;;;;5009283;28;20322;-66
2021/09/05 10:49:16;;;;;;;6.03;3.83;;;23.40;99.90;;;;;;5028812;28;20307;-66
2021/09/05 10:51:47;;;;;;;4.73;3.73;;;23.60;99.90;;;;;;5024242;28;20237;-67
2021/09/05 10:54:24;;;;;;;4.87;4.00;;;23.80;99.90;;;;;;5039786;28;20236;-67
2021/09/05 10:56:53;;;;;;;5.03;3.77;;;23.90;99.90;;;;;;5044412;28;20252;-67
2021/09/05 10:59:23;;;;;;;7.60;4.57;;;24.20;99.90;;;;;;5043199;28;20236;-65
2021/09/05 11:02:00;;;;;;;4.73;3.87;;;24.30;99.90;;;;;;5041335;28;20233;-67
2021/09/05 11:04:40;;;;;;;4.80;3.80;;;24.70;99.90;;;;;;5024475;28;20710;-66
2021/09/05 11:07:12;;;;;;;5.77;4.30;;;24.90;99.90;;;;;;5026622;28;20661;-66
2021/09/05 11:09:43;;;;;;;4.97;3.70;;;24.40;99.90;;;;;;5034684;28;20271;-66
2021/09/05 11:12:15;;;;;;;8.20;4.10;;;24.70;99.90;;;;;;5042303;28;20237;-67
2021/09/05 11:14:56;;;;;;;4.97;3.73;;;24.90;99.90;;;;;;5045787;28;20340;-67
2021/09/05 11:17:27;;;;;;;4.00;3.47;;;25.30;99.90;;;;;;5044810;28;20611;-67
2021/09/05 11:19:58;;;;;;;4.20;3.80;;;25.60;99.90;;;;;;5046190;28;20264;-66
2021/09/05 11:22:32;;;;;;;7.73;4.70;;;25.30;99.90;;;;;;5043701;28;20238;-67
2021/09/05 11:25:15;;;;;;;6.00;3.93;;;24.70;99.90;;;;;;5031822;28;20739;-67
2021/09/05 11:28:05;;;;;;;7.37;3.77;;;24.50;99.90;;;;;;5025840;28;20268;-67
2021/09/05 11:30:58;;;;;;;6.27;4.07;;;24.60;99.90;;;;;;5019527;28;20244;-67
2021/09/05 11:33:28;;;;;;;5.27;4.00;;;24.40;99.90;;;;;;5047881;28;20234;-68
2021/09/05 11:35:58;;;;;;;5.60;4.00;;;24.70;99.90;;;;;;5048486;28;20329;-68
2021/09/05 11:38:31;;;;;;;5.20;3.70;;;25.00;99.90;;;;;;5047159;28;20244;-67
2021/09/05 11:41:02;;;;;;;7.60;4.30;;;25.30;99.90;;;;;;5048382;28;20249;-67
2021/09/05 11:43:32;;;;;;;5.90;3.87;;;24.80;99.90;;;;;;5048125;28;20280;-67
2021/09/05 11:46:08;;;;;;;5.43;4.07;;;24.60;99.90;;;;;;5048178;28;20241;-67
2021/09/05 11:48:39;;;;;;;6.80;3.80;;;24.50;99.90;;;;;;5048185;28;20233;-67
2021/09/05 11:51:07;;;;;;;6.97;4.27;;;24.40;99.90;;;;;;5046655;28;20233;-67
2021/09/05 11:53:36;;;;;;;4.43;3.87;;;24.20;99.90;;;;;;5047541;28;20272;-66
2021/09/05 11:56:06;;;;;;;6.07;3.87;;;24.30;99.90;;;;;;5048458;28;20234;-67
2021/09/05 11:58:35;;;;;;;4.87;3.70;;;24.30;99.90;;;;;;5046467;28;20243;-66
2021/09/05 12:01:05;;;;;;;5.17;4.10;;;24.20;99.90;;;;;;5047098;28;20235;-67
2021/09/05 12:03:34;;;;;;;7.63;3.70;;;24.10;99.90;;;;;;5047202;28;20637;-67
2021/09/05 12:06:03;;;;;;;5.80;4.00;;;24.20;99.90;;;;;;5047655;28;20732;-68
2021/09/05 12:08:33;;;;;;;6.77;4.17;;;23.90;99.90;;;;;;5048110;28;20235;-67
2021/09/05 12:11:07;;;;;;;6.07;4.03;;;23.90;99.90;;;;;;5047941;28;20259;-66
2021/09/05 12:13:54;;;;;;;8.07;4.50;;;23.70;99.90;;;;;;5046896;28;20323;-67
2021/09/05 12:16:25;;;;;;;5.70;3.93;;;23.40;99.90;;;;;;5047794;28;20949;-67
2021/09/05 12:19:04;;;;;;;6.07;4.13;;;23.60;99.90;;;;;;5048183;28;20231;-66
2021/09/05 12:21:34;;;;;;;5.63;3.90;;;23.60;99.90;;;;;;5045282;28;20234;-67
2021/09/05 12:24:03;;;;;;;7.77;4.57;;;23.50;99.90;;;;;;5047326;28;20232;-67
2021/09/05 12:26:38;;;;;;;4.67;3.83;;;23.20;99.90;;;;;;5047615;28;20287;-67
2021/09/05 12:29:09;;;;;;;4.30;3.90;;;23.20;99.90;;;;;;5047515;28;20319;-68
2021/09/05 12:31:44;;;;;;;4.83;3.97;;;23.10;99.90;;;;;;5046704;28;20258;-66
2021/09/05 12:34:40;;;;;;;4.80;3.50;;;23.10;99.90;;;;;;5046357;28;20248;-67
2021/09/05 12:37:14;;;;;;;6.53;4.00;;;23.30;99.90;;;;;;5042713;28;20688;-67
2021/09/05 12:39:46;;;;;;;5.67;4.03;;;23.50;99.90;;;;;;5046939;28;20244;-67
2021/09/05 12:42:18;;;;;;;4.93;3.67;;;23.40;99.90;;;;;;5046702;28;20634;-66
2021/09/05 12:44:47;;;;;;;6.90;4.13;;;23.40;99.90;;;;;;5046371;28;20717;-67
2021/09/05 12:47:24;;;;;;;4.37;3.73;;;23.30;99.90;;;;;;5045899;28;20229;-67
2021/09/05 12:49:54;;;;;;;6.17;3.43;;;22.80;99.90;;;;;;5044979;28;20255;-68
2021/09/05 12:52:25;;;;;;;4.90;3.60;;;22.60;99.90;;;;;;5047059;28;21436;-66
2021/09/05 12:54:57;;;;;;;5.57;4.00;;;22.50;99.90;;;;;;5045859;28;20700;-68
2021/09/05 12:57:29;;;;;;;6.03;3.93;;;22.30;99.90;;;;;;5045087;28;20323;-68
2021/09/05 12:59:58;;;;;;;5.23;3.87;;;22.20;99.90;;;;;;5044658;28;20239;-67
2021/09/05 13:02:29;;;;;;;5.97;4.07;;;22.10;99.90;;;;;;5045558;28;20279;-68
2021/09/05 13:04:58;;;;;;;5.73;4.10;;;22.10;99.90;;;;;;5046823;28;20293;-67
2021/09/05 13:07:26;;;;;;;5.77;3.53;;;22.00;99.90;;;;;;5046121;28;20769;-68
2021/09/05 13:09:59;;;;;;;5.37;3.70;;;22.10;99.90;;;;;;5047165;28;20594;-68
2021/09/05 13:12:29;;;;;;;5.37;3.83;;;22.20;99.90;;;;;;5046477;28;20742;-67
2021/09/05 13:14:58;;;;;;;6.50;3.93;;;22.20;99.90;;;;;;5046649;28;20232;-67